Time;durP1;ratioP1;P1;durP2;ratioP2;P2;SDS_P1;SDS_P2;PMS_P1;PMS_P2;Temp;Humidity;BMP_temperature;BMP_pressure;BME280_temperature;BME280_humidity;BME280_pressure;Samples;Min_cycle;Max_cycle;Signal;HPM_P1;HPM_P2
2022/02/12 01:48:31;;;;;;;4.20;0.52;;;;;;;7.35;80.77;100928.66;4651564;27;13211210;-82
2022/02/12 01:52:11;;;;;;;;;;;;;;;;;;;;;
2022/02/12 01:59:00;;;;;;;;;;;;;;;;;;;;;
2022/02/12 02:02:39;;;;;;;;;;;;;;;;;;;;;
2022/02/12 02:05:41;;;;;;;3.30;0.60;;;;;;;7.48;80.63;100885.59;4982741;28;20054;-82
2022/02/12 02:08:36;;;;;;;5.60;1.25;;;;;;;7.50;80.79;100888.84;4986401;28;20042;-81
2022/02/12 02:11:49;;;;;;;6.07;0.68;;;;;;;7.52;80.58;100876.38;4961843;28;20532;-82
2022/02/12 02:14:43;;;;;;;1.63;1.10;;;;;;;7.52;80.78;100876.38;5047110;28;20056;-82
2022/02/12 02:17:13;;;;;;;2.45;0.68;;;;;;;7.56;80.30;100871.03;5034013;28;20807;-81
2022/02/12 02:23:12;;;;;;;2.38;0.70;;;;;;;7.61;80.11;100859.84;5049159;28;20144;-82
2022/02/12 02:25:53;;;;;;;4.18;0.57;;;;;;;7.65;80.11;100855.34;5086678;28;20032;-81
2022/02/12 02:28:51;;;;;;;3.72;0.45;;;;;;;7.66;79.80;100838.47;5064775;28;20040;-82
2022/02/12 02:31:35;;;;;;;3.03;0.50;;;;;;;7.69;79.86;100859.88;5067818;28;20056;-81
2022/02/12 02:34:13;;;;;;;2.78;0.80;;;;;;;7.70;80.07;100822.91;5086435;28;20046;-81
2022/02/12 02:36:40;;;;;;;1.77;0.68;;;;;;;7.72;79.89;100830.84;5088541;28;20047;-81
2022/02/12 02:39:13;;;;;;;5.30;0.55;;;;;;;7.74;79.93;100820.31;5087088;28;20032;-82
2022/02/12 02:41:47;;;;;;;2.00;0.98;;;;;;;7.77;80.07;100817.72;5087222;28;20046;-81
2022/02/12 02:44:26;;;;;;;3.08;0.93;;;;;;;7.76;80.06;100807.81;5070801;28;20045;-82
2022/02/12 02:46:56;;;;;;;4.93;0.57;;;;;;;7.78;80.25;100805.53;5067381;28;20048;-81
2022/02/12 02:49:24;;;;;;;7.00;0.88;;;;;;;7.80;80.39;100810.75;5072890;28;20044;-81
2022/02/12 02:57:30;;;;;;;3.60;0.80;;;;;;;7.84;79.96;100787.72;5075806;28;20397;-81
2022/02/12 03:00:03;;;;;;;2.55;0.57;;;;;;;7.85;80.33;100775.56;5074203;28;20043;-81
2022/02/12 03:02:30;;;;;;;7.05;0.93;;;;;;;7.83;80.99;100766.81;5054346;28;20131;-81
2022/02/12 03:04:57;;;;;;;3.55;0.77;;;;;;;7.82;81.21;100759.69;5053755;28;20084;-82
2022/02/12 03:07:34;;;;;;;2.42;0.63;;;;;;;7.80;81.59;100767.47;5071252;28;20078;-82
2022/02/12 03:10:57;;;;;;;4.95;0.52;;;;;;;7.78;82.29;100749.66;5051846;28;20517;-82
2022/02/12 03:13:58;;;;;;;2.50;0.50;;;;;;;7.76;82.34;100732.59;5069619;28;20056;-82
2022/02/12 03:16:33;;;;;;;2.10;0.50;;;;;;;7.77;81.82;100735.03;5038781;28;20048;-82
2022/02/12 03:19:15;;;;;;;6.43;0.85;;;;;;;7.76;82.26;100705.03;5070119;28;20036;-82
2022/02/12 03:21:47;;;;;;;2.08;1.13;;;;;;;7.79;82.04;100715.41;5053027;28;20044;-81
2022/02/12 03:24:13;;;;;;;2.00;0.45;;;;;;;7.82;81.94;100731.31;5036169;28;20068;-82
2022/02/12 03:26:40;;;;;;;7.53;2.40;;;;;;;7.84;81.94;100707.78;5055597;28;20400;-82
2022/02/12 03:29:07;;;;;;;1.33;0.30;;;;;;;7.85;81.64;100703.09;5042067;28;20037;-82
2022/02/12 03:31:34;;;;;;;1.27;0.52;;;;;;;7.86;81.73;100694.47;5054215;28;20052;-81
2022/02/12 03:34:01;;;;;;;2.58;0.30;;;;;;;7.88;81.69;100700.50;5057233;28;20115;-81
2022/02/12 03:36:28;;;;;;;3.15;0.80;;;;;;;7.92;81.53;100693.19;5075033;28;20052;-81
2022/02/12 03:38:55;;;;;;;1.73;0.20;;;;;;;7.93;81.37;100678.25;5054270;28;20489;-81
2022/02/12 03:41:22;;;;;;;3.40;0.45;;;;;;;7.93;81.37;100649.88;5051805;28;20115;-81
2022/02/12 03:43:49;;;;;;;2.63;0.47;;;;;;;7.95;81.44;100670.47;5055695;28;20086;-81
2022/02/12 03:46:17;;;;;;;3.33;0.82;;;;;;;7.97;81.54;100650.81;5054459;28;20056;-81
2022/02/12 03:48:44;;;;;;;3.15;0.40;;;;;;;8.01;81.58;100667.53;5053737;28;20097;-81
2022/02/12 03:51:11;;;;;;;1.35;0.60;;;;;;;8.02;81.57;100649.84;5056999;28;20057;-81
2022/02/12 03:53:38;;;;;;;3.00;0.40;;;;;;;8.02;81.69;100660.88;5052835;28;20036;-81
2022/02/12 03:56:05;;;;;;;4.22;1.58;;;;;;;8.04;81.47;100647.56;5054063;28;20052;-81
2022/02/12 03:58:32;;;;;;;2.42;0.52;;;;;;;8.04;81.62;100647.56;5070772;28;20040;-81
2022/02/12 04:00:59;;;;;;;3.15;0.32;;;;;;;8.05;81.88;100629.91;5071452;28;20587;-82
2022/02/12 04:03:26;;;;;;;4.88;0.63;;;;;;;8.06;81.72;100634.25;5073116;28;20056;-81
2022/02/12 04:05:53;;;;;;;6.07;0.43;;;;;;;8.05;81.85;100629.91;5055801;28;20074;-81
2022/02/12 04:08:21;;;;;;;5.03;1.58;;;;;;;8.04;82.17;100618.06;5071502;28;20059;-81
2022/02/12 04:10:49;;;;;;;0.88;0.38;;;;;;;8.05;82.12;100618.88;5072906;28;20094;-81
2022/02/12 04:13:17;;;;;;;3.95;0.50;;;;;;;8.06;82.18;100610.25;5072076;28;21592;-81
2022/02/12 04:15:44;;;;;;;2.13;0.73;;;;;;;8.08;81.94;100607.97;5042222;28;20489;-81
2022/02/12 04:18:12;;;;;;;2.95;0.60;;;;;;;8.09;82.06;100606.03;5071987;28;20039;-81
2022/02/12 04:20:40;;;;;;;3.55;0.35;;;;;;;8.12;82.23;100597.09;5069851;28;20031;-81
2022/02/12 04:23:08;;;;;;;3.45;1.35;;;;;;;8.12;82.37;100592.41;5054139;28;20072;-81
2022/02/12 04:25:36;;;;;;;2.88;0.40;;;;;;;8.14;82.30;100589.28;5040116;28;20048;-81
2022/02/12 04:28:05;;;;;;;1.35;0.38;;;;;;;8.13;82.42;100582.19;5074456;28;20036;-81
2022/02/12 04:30:32;;;;;;;1.20;0.30;;;;;;;8.16;82.29;100576.78;5053057;28;20048;-81
2022/02/12 04:32:59;;;;;;;1.20;0.30;;;;;;;8.18;82.38;100579.22;5051562;28;21832;-81
2022/02/12 04:35:27;;;;;;;1.48;0.20;;;;;;;8.19;82.15;100565.09;5052574;28;20036;-80
2022/02/12 04:37:53;;;;;;;3.92;1.05;;;;;;;8.21;82.13;100581.31;5055452;28;20127;-81
2022/02/12 04:40:20;;;;;;;5.18;0.60;;;;;;;8.19;82.43;100569.81;5051875;28;20048;-81
2022/02/12 04:42:47;;;;;;;0.90;0.38;;;;;;;8.20;82.04;100577.75;5071941;28;20071;-81
2022/02/12 04:45:15;;;;;;;2.40;0.10;;;;;;;8.21;82.44;100559.22;5043786;28;20150;-81
2022/02/12 04:47:43;;;;;;;3.72;1.00;;;;;;;8.22;82.33;100549.84;5054602;28;20052;-81
2022/02/12 04:50:11;;;;;;;2.97;0.30;;;;;;;8.23;82.48;100566.06;5070729;28;20494;-81
2022/02/12 04:52:41;;;;;;;2.50;0.90;;;;;;;8.25;82.48;100557.44;5037969;28;20470;-81
2022/02/12 04:55:09;;;;;;;4.20;0.57;;;;;;;8.24;82.63;100542.03;5052287;28;20074;-80
2022/02/12 04:57:36;;;;;;;2.08;0.20;;;;;;;8.25;82.68;100549.97;5053175;28;20040;-81
2022/02/12 05:00:05;;;;;;;0.85;0.32;;;;;;;8.24;82.73;100544.78;5052103;28;20044;-81
2022/02/12 05:02:33;;;;;;;2.20;0.30;;;;;;;8.25;82.90;100518.84;5063405;28;20071;-80
2022/02/12 05:05:01;;;;;;;2.15;0.40;;;;;;;8.28;82.74;100526.47;5052191;28;20045;-81
2022/02/12 05:07:31;;;;;;;2.95;0.30;;;;;;;8.31;82.66;100528.56;5075951;28;20118;-80
2022/02/12 05:09:58;;;;;;;0.75;0.10;;;;;;;8.32;82.64;100508.09;5051864;28;20059;-81
2022/02/12 05:12:25;;;;;;;1.95;0.20;;;;;;;8.34;82.43;100525.13;5069715;28;20051;-81
2022/02/12 05:14:53;;;;;;;3.63;0.10;;;;;;;8.35;82.23;100521.22;5070225;28;20047;-81
2022/02/12 05:17:20;;;;;;;0.15;0.10;;;;;;;8.37;82.35;100516.16;5067910;28;20050;-80
2022/02/12 05:19:47;;;;;;;1.65;0.20;;;;;;;8.40;82.27;100498.94;5049417;28;20044;-81
2022/02/12 05:22:19;;;;;;;0.52;0.20;;;;;;;8.40;82.24;100483.22;5034940;28;20040;-81
2022/02/12 05:24:46;;;;;;;0.40;0.10;;;;;;;8.42;82.32;100491.13;5071710;28;20040;-81
2022/02/12 05:27:13;;;;;;;0.13;0.08;;;;;;;8.43;82.40;100506.56;5050857;28;20044;-81
2022/02/12 05:29:43;;;;;;;1.85;0.63;;;;;;;8.45;82.55;100499.56;5051878;28;20044;-81
2022/02/12 05:32:10;;;;;;;1.00;0.40;;;;;;;8.47;82.52;100493.72;5053377;28;20040;-81
2022/02/12 05:34:39;;;;;;;1.55;0.22;;;;;;;8.48;82.17;100487.03;5070412;28;20121;-81
2022/02/12 05:37:07;;;;;;;5.22;0.30;;;;;;;8.47;82.65;100482.69;5066941;28;20051;-81
2022/02/12 05:39:35;;;;;;;1.55;0.40;;;;;;;8.47;82.79;100471.66;5052126;28;20053;-81
2022/02/12 05:42:02;;;;;;;1.13;0.20;;;;;;;8.49;82.80;100472.13;5070776;28;20126;-81
2022/02/12 05:44:29;;;;;;;0.85;0.30;;;;;;;8.50;82.95;100465.44;5033312;28;20075;-81
2022/02/12 05:46:56;;;;;;;1.13;0.50;;;;;;;8.53;82.71;100470.28;5070021;28;20044;-81
2022/02/12 05:49:26;;;;;;;0.50;0.45;;;;;;;8.52;82.62;100449.38;5053094;28;20501;-81
2022/02/12 05:51:53;;;;;;;1.65;0.20;;;;;;;8.55;82.83;100463.28;5070245;28;20048;-81
2022/02/12 05:54:19;;;;;;;1.38;0.25;;;;;;;8.55;82.59;100451.47;5034158;28;20047;-80
2022/02/12 05:56:48;;;;;;;1.75;0.20;;;;;;;8.56;82.55;100451.09;5051415;28;20097;-80
2022/02/12 05:59:16;;;;;;;0.40;0.20;;;;;;;8.58;82.35;100439.72;5048968;28;20109;-80
2022/02/12 06:01:43;;;;;;;0.80;0.32;;;;;;;8.58;82.50;100434.19;5071475;28;20040;-80
2022/02/12 06:04:10;;;;;;;1.58;0.20;;;;;;;8.58;82.15;100435.00;5052465;28;20048;-80
2022/02/12 06:06:37;;;;;;;7.63;2.00;;;;;;;8.57;82.23;100414.09;5073140;28;20043;-80
2022/02/12 06:09:05;;;;;;;1.13;0.20;;;;;;;8.55;82.40;100407.31;5053467;28;20064;-80
2022/02/12 06:11:32;;;;;;;2.60;0.28;;;;;;;8.54;82.14;100414.78;5071448;28;20044;-81
2022/02/12 06:13:58;;;;;;;0.10;0.03;;;;;;;8.55;82.24;100412.81;5036687;28;20051;-80
2022/02/12 06:16:25;;;;;;;0.95;0.32;;;;;;;8.53;82.42;100404.88;5071753;28;20512;-80
2022/02/12 06:18:53;;;;;;;0.20;0.10;;;;;;;8.55;82.39;100390.75;5051544;28;20048;-80
2022/02/12 06:21:23;;;;;;;2.22;0.13;;;;;;;8.55;82.55;100390.75;5052956;28;20130;-80
2022/02/12 06:23:50;;;;;;;1.13;0.30;;;;;;;8.53;82.35;100406.81;5074673;28;20044;-80
2022/02/12 06:26:22;;;;;;;0.98;0.20;;;;;;;8.54;82.50;100400.97;5072938;28;20044;-80
2022/02/12 06:28:51;;;;;;;1.23;0.22;;;;;;;8.53;82.63;100409.56;5055021;28;20040;-80
2022/02/12 06:31:18;;;;;;;0.30;0.10;;;;;;;8.52;82.74;100375.66;5052560;28;20738;-80
2022/02/12 06:33:45;;;;;;;2.05;0.30;;;;;;;8.52;82.55;100381.19;5057008;28;20043;-80
2022/02/12 06:36:17;;;;;;;2.17;0.20;;;;;;;8.52;82.88;100377.63;5036850;28;20040;-79
2022/02/12 06:38:44;;;;;;;0.73;0.17;;;;;;;8.55;82.60;100363.16;5055153;28;20494;-80
2022/02/12 06:41:11;;;;;;;1.85;0.20;;;;;;;8.56;82.75;100370.28;5040508;28;20051;-80
2022/02/12 06:43:43;;;;;;;1.15;0.20;;;;;;;8.56;82.89;100365.56;5057874;28;20559;-80
2022/02/12 06:46:13;;;;;;;1.65;0.10;;;;;;;8.58;82.84;100362.47;5055099;28;20090;-81
2022/02/12 06:48:45;;;;;;;0.63;0.20;;;;;;;8.59;82.97;100377.88;5072626;28;20445;-80
2022/02/12 06:51:16;;;;;;;1.75;0.20;;;;;;;8.60;83.37;100348.34;5057935;28;20040;-80
2022/02/12 06:53:44;;;;;;;1.08;0.00;;;;;;;8.59;83.49;100355.81;5063084;28;20505;-80
2022/02/12 06:56:11;;;;;;;0.10;0.05;;;;;;;8.62;83.36;100371.69;5055357;28;20127;-80
2022/02/12 06:58:39;;;;;;;0.20;0.20;;;;;;;8.62;83.38;100341.31;5035071;28;20044;-80
2022/02/12 07:01:06;;;;;;;0.22;0.10;;;;;;;8.64;83.24;100357.53;5053128;28;20047;-80
2022/02/12 07:03:33;;;;;;;0.60;0.20;;;;;;;8.63;83.34;100351.19;5054891;28;20068;-80
2022/02/12 07:06:00;;;;;;;2.15;0.20;;;;;;;8.65;83.51;100350.88;5072874;28;20512;-80
2022/02/12 07:08:27;;;;;;;0.10;0.10;;;;;;;8.70;83.09;100343.19;5052914;28;20297;-80
2022/02/12 07:10:54;;;;;;;2.50;0.75;;;;;;;8.71;83.03;100347.53;5052461;28;20758;-80
2022/02/12 07:13:21;;;;;;;0.82;0.10;;;;;;;8.73;83.00;100348.03;5054743;28;20522;-80
2022/02/12 07:15:48;;;;;;;1.10;0.10;;;;;;;8.73;83.15;100338.94;5071920;28;20048;-80
2022/02/12 07:18:17;;;;;;;1.55;0.10;;;;;;;8.74;83.08;100333.06;5070502;28;20042;-80
2022/02/12 07:20:44;;;;;;;0.30;0.10;;;;;;;8.74;83.26;100330.28;5054195;28;20131;-80
2022/02/12 07:23:15;;;;;;;0.82;0.08;;;;;;;8.76;83.01;100314.22;5075715;28;20036;-81
2022/02/12 07:25:42;;;;;;;0.35;0.10;;;;;;;8.80;83.04;100326.16;5051994;28;20048;-80
2022/02/12 07:28:09;;;;;;;3.20;0.20;;;;;;;8.83;82.96;100308.94;5052318;28;20417;-80
2022/02/12 07:30:36;;;;;;;0.38;0.10;;;;;;;8.84;82.90;100310.50;5034929;28;20048;-80
2022/02/12 07:33:03;;;;;;;1.05;0.20;;;;;;;8.87;82.69;100326.41;5070767;28;20043;-80
2022/02/12 07:35:34;;;;;;;0.88;0.08;;;;;;;8.89;82.66;100302.03;5055511;28;20042;-80
2022/02/12 07:38:01;;;;;;;0.65;0.08;;;;;;;8.88;82.75;100308.69;5051905;28;20044;-80
2022/02/12 07:40:28;;;;;;;0.05;0.00;;;;;;;8.88;82.70;100297.66;5053505;28;20123;-80
2022/02/12 07:42:55;;;;;;;0.10;0.00;;;;;;;8.91;82.78;100296.16;5072007;28;20051;-80
2022/02/12 07:45:24;;;;;;;0.05;0.00;;;;;;;8.91;82.69;100294.22;5057980;28;20044;-80
2022/02/12 07:47:54;;;;;;;0.55;0.00;;;;;;;8.93;82.92;100302.94;5032546;28;20056;-80
2022/02/12 07:50:21;;;;;;;0.10;0.00;;;;;;;8.96;82.70;100302.25;5050560;28;20502;-80
2022/02/12 07:52:47;;;;;;;2.28;0.20;;;;;;;8.96;82.63;100295.94;5051512;28;20044;-82
2022/02/12 07:55:15;;;;;;;0.10;0.00;;;;;;;8.97;82.59;100289.25;5035730;28;20064;-81
2022/02/12 07:57:42;;;;;;;0.20;0.10;;;;;;;8.98;82.98;100291.66;5047803;28;20045;-81
2022/02/12 08:00:13;;;;;;;0.57;0.00;;;;;;;8.99;82.95;100285.00;5051696;28;20048;-81
2022/02/12 08:02:40;;;;;;;0.55;0.30;;;;;;;9.02;82.77;100286.28;5049573;28;20057;-81
2022/02/12 08:05:08;;;;;;;0.08;0.05;;;;;;;9.02;82.74;100281.56;5034241;28;20055;-81
2022/02/12 08:07:39;;;;;;;0.00;0.00;;;;;;;9.04;82.98;100283.97;5052794;28;20041;-81
2022/02/12 08:13:02;;;;;;;0.50;0.10;;;;;;;9.07;83.16;100275.81;5050793;28;20083;-81
2022/02/12 08:15:37;;;;;;;0.20;0.10;;;;;;;9.07;83.22;100281.31;5051650;28;20049;-80
2022/02/12 08:18:05;;;;;;;0.52;0.13;;;;;;;9.10;83.43;100266.00;5050230;28;20070;-80
2022/02/12 08:20:32;;;;;;;1.10;0.20;;;;;;;9.11;83.31;100265.66;5049986;28;20058;-80
2022/02/12 08:22:59;;;;;;;0.30;0.10;;;;;;;9.12;83.34;100260.94;5049638;28;20043;-80
2022/02/12 08:25:26;;;;;;;1.00;0.35;;;;;;;9.13;83.69;100277.16;5047395;28;20092;-81
2022/02/12 08:27:54;;;;;;;0.77;0.10;;;;;;;9.14;83.45;100270.50;5040700;28;20036;-81
2022/02/12 08:30:26;;;;;;;2.20;0.20;;;;;;;9.17;83.33;100269.81;5040121;28;20417;-80
2022/02/12 08:33:16;;;;;;;0.75;0.10;;;;;;;9.17;84.05;100258.75;5050046;28;20032;-82
2022/02/12 08:35:53;;;;;;;1.85;0.50;;;;;;;9.21;83.70;100266.34;5052591;28;20434;-81
2022/02/12 08:38:21;;;;;;;0.88;0.65;;;;;;;9.26;83.29;100266.09;5051362;28;20050;-80
2022/02/12 08:40:48;;;;;;;1.65;0.40;;;;;;;9.28;83.64;100258.28;5052097;28;20563;-80
2022/02/12 08:43:15;;;;;;;1.95;0.30;;;;;;;9.32;83.53;100261.97;5051062;28;20124;-80
2022/02/12 08:45:42;;;;;;;1.00;0.30;;;;;;;9.36;83.61;100266.44;5049420;28;20140;-80
2022/02/12 08:48:10;;;;;;;4.63;1.00;;;;;;;9.38;83.28;100258.59;5060689;28;20059;-80
2022/02/12 08:50:38;;;;;;;0.20;0.10;;;;;;;9.39;83.32;100254.69;5069815;28;20127;-79
2022/02/12 08:53:06;;;;;;;0.65;0.22;;;;;;;9.40;83.61;100249.97;5052812;28;20511;-79
2022/02/12 08:55:33;;;;;;;1.20;0.40;;;;;;;9.44;83.36;100248.09;5062771;28;20047;-80
2022/02/12 08:58:00;;;;;;;1.45;0.50;;;;;;;9.47;83.52;100258.47;5059874;28;20047;-80
2022/02/12 09:00:27;;;;;;;1.13;0.40;;;;;;;9.48;83.76;100260.88;5054133;28;20040;-79
2022/02/12 09:03:10;;;;;;;4.75;1.25;;;;;;;9.51;83.43;100246.34;5073739;28;20051;-79
2022/02/12 09:05:37;;;;;;;1.25;0.20;;;;;;;9.54;83.32;100266.94;5056387;28;20088;-79
2022/02/12 09:08:04;;;;;;;2.60;0.22;;;;;;;9.57;83.51;100249.69;5044227;28;20173;-79
2022/02/12 09:10:31;;;;;;;0.43;0.13;;;;;;;9.58;83.44;100252.06;5036451;28;20049;-80
2022/02/12 09:12:58;;;;;;;1.10;0.77;;;;;;;9.59;83.75;100258.41;5071111;28;20516;-80
2022/02/12 09:15:26;;;;;;;0.10;0.10;;;;;;;9.60;83.61;100260.03;5073347;28;20040;-80
2022/02/12 09:17:56;;;;;;;0.93;0.15;;;;;;;9.61;84.03;100256.13;5054017;28;20045;-80
2022/02/12 09:20:23;;;;;;;0.20;0.20;;;;;;;9.61;84.32;100256.13;5052227;28;20127;-80
2022/02/12 09:22:50;;;;;;;0.47;0.20;;;;;;;9.60;84.53;100252.56;5055548;28;20078;-80
2022/02/12 09:25:16;;;;;;;4.43;0.52;;;;;;;9.59;84.35;100263.94;5072003;28;20501;-80
2022/02/12 09:27:43;;;;;;;0.98;0.38;;;;;;;9.56;84.98;100261.88;5065329;28;20367;-81
2022/02/12 09:30:11;;;;;;;0.82;0.20;;;;;;;9.50;86.17;100260.53;5033292;28;20446;-80
2022/02/12 09:32:38;;;;;;;0.40;0.20;;;;;;;9.47;85.48;100252.94;5050310;28;20044;-80
2022/02/12 09:35:06;;;;;;;2.30;0.25;;;;;;;9.41;86.70;100259.84;5056668;28;20066;-80
2022/02/12 09:37:33;;;;;;;0.70;0.30;;;;;;;9.37;86.77;100256.97;5071327;28;20051;-79
2022/02/12 09:40:09;;;;;;;1.35;0.40;;;;;;;9.36;87.40;100263.66;5033790;28;20144;-79
2022/02/12 09:42:36;;;;;;;0.90;0.20;;;;;;;9.34;87.98;100254.13;5054964;28;20047;-80
2022/02/12 09:48:48;;;;;;;2.55;0.40;;;;;;;9.37;88.71;100253.44;5061861;28;20075;-81
2022/02/12 09:51:18;;;;;;;1.38;0.30;;;;;;;9.40;87.98;100233.41;4960525;28;20058;-80
2022/02/12 09:53:44;;;;;;;1.67;0.38;;;;;;;9.45;87.96;100227.63;4964736;28;20092;-80
2022/02/12 09:56:11;;;;;;;1.95;0.30;;;;;;;9.47;87.61;100230.84;5034353;28;20045;-79
2022/02/12 10:02:58;;;;;;;1.98;1.15;;;;;;;9.49;87.37;100211.94;5024970;28;20044;-81
2022/02/12 10:05:50;;;;;;;5.53;0.60;;;;;;;9.53;87.07;100212.84;5039056;28;20048;-81
2022/02/12 10:08:23;;;;;;;0.65;0.32;;;;;;;9.58;87.15;100201.56;5035149;28;20081;-80
2022/02/12 10:11:26;;;;;;;4.13;0.95;;;;;;;9.60;87.11;100216.63;5038500;28;20088;-81
2022/02/12 10:14:20;;;;;;;3.15;1.08;;;;;;;9.63;86.82;100206.81;5035119;28;20045;-82
2022/02/12 10:17:24;;;;;;;;;;;;;;;;;;;;;
2022/02/12 10:20:28;;;;;;;1.95;0.60;;;;;;;9.69;86.70;100208.16;4977874;28;20061;-80
2022/02/12 10:23:08;;;;;;;1.92;0.70;;;;;;;9.75;86.64;100204.00;4982507;28;20057;-79
2022/02/12 10:25:38;;;;;;;2.67;0.30;;;;;;;9.79;86.49;100196.63;4997622;28;20435;-79
2022/02/12 10:28:07;;;;;;;6.15;1.13;;;;;;;9.84;86.47;100199.13;4981347;28;20050;-79
2022/02/12 10:30:35;;;;;;;2.35;0.60;;;;;;;9.86;86.26;100204.28;4971020;28;20157;-79
2022/02/12 10:33:05;;;;;;;1.63;0.47;;;;;;;9.86;86.05;100194.03;4979647;28;20081;-79
2022/02/12 10:43:32;;;;;;;1.58;0.85;;;;;;;9.98;85.67;100205.03;4969781;28;20117;-78
2022/02/12 10:46:04;;;;;;;1.80;0.90;;;;;;;9.99;85.62;100198.34;4980161;28;20049;-79
2022/02/12 10:48:35;;;;;;;2.15;0.45;;;;;;;10.01;85.37;100204.31;5006960;28;20058;-79
2022/02/12 10:51:03;;;;;;;3.35;0.68;;;;;;;10.06;85.48;100201.28;5014463;28;20053;-79
2022/02/12 10:58:13;;;;;;;3.88;0.57;;;;;;;10.13;85.04;100184.94;4925048;28;20051;-81
2022/02/12 11:01:23;;;;;;;3.83;0.60;;;;;;;10.14;84.72;100191.28;4920402;29;20095;-86
2022/02/12 11:04:31;;;;;;;4.28;0.80;;;;;;;10.17;84.78;100190.53;4925361;29;20104;-80
2022/02/12 11:07:07;;;;;;;4.00;0.60;;;;;;;10.18;84.84;100209.56;4972489;28;20057;-79
2022/02/12 11:09:37;;;;;;;3.63;0.60;;;;;;;10.24;84.90;100190.75;5000409;28;20042;-79
2022/02/12 11:12:50;;;;;;;2.47;0.73;;;;;;;10.30;84.57;100190.09;4997785;28;20498;-82
2022/02/12 11:16:17;;;;;;;;;;;;;;;;;;;;;
2022/02/12 11:19:14;;;;;;;3.60;0.82;;;;;;;10.44;83.74;100178.59;4947950;28;20063;-82
2022/02/12 11:35:10;;;;;;;7.00;1.20;;;;;;;10.56;82.48;100163.84;4838696;29;20441;-80
2022/02/12 11:37:41;;;;;;;4.22;0.52;;;;;;;10.61;82.89;100166.34;4848258;29;20085;-80
2022/02/12 11:40:13;;;;;;;4.95;1.00;;;;;;;10.68;82.67;100172.03;4851247;29;20052;-80
2022/02/12 11:42:55;;;;;;;4.13;0.70;;;;;;;10.71;82.24;100177.69;4860212;29;20063;-80
2022/02/12 11:45:31;;;;;;;2.55;0.55;;;;;;;10.72;82.14;100159.09;4921099;29;20131;-80
2022/02/12 11:48:19;;;;;;;7.65;1.85;;;;;;;10.62;82.19;100168.75;4909700;29;20100;-80
2022/02/12 11:51:06;;;;;;;7.85;2.47;;;;;;;10.45;83.23;100169.13;4908841;29;20067;-81
2022/02/12 11:53:38;;;;;;;2.38;0.60;;;;;;;10.31;83.68;100163.25;4971432;28;20061;-81
2022/02/12 11:56:19;;;;;;;23.58;2.85;;;;;;;10.19;84.48;100169.66;5013440;28;20077;-81
2022/02/12 11:58:58;;;;;;;19.83;2.03;;;;;;;10.09;84.56;100158.28;5041441;28;20136;-81
2022/02/12 12:01:27;;;;;;;30.92;3.58;;;;;;;10.00;84.52;100147.41;5033360;28;20044;-80
2022/02/12 12:04:15;;;;;;;8.30;1.08;;;;;;;9.94;85.86;100148.03;5032122;28;20057;-80
2022/02/12 12:07:01;;;;;;;3.35;0.60;;;;;;;9.88;85.84;100144.72;5024175;28;20517;-80
2022/02/12 12:09:35;;;;;;;2.97;0.40;;;;;;;9.86;85.75;100143.47;5041076;28;20136;-81
2022/02/12 12:12:23;;;;;;;2.40;0.60;;;;;;;9.84;86.22;100124.47;5039063;28;20048;-80
2022/02/12 12:15:12;;;;;;;3.45;1.15;;;;;;;9.86;85.92;100127.69;5049328;28;20045;-80
2022/02/12 12:17:39;;;;;;;4.63;1.90;;;;;;;9.85;86.23;100117.78;5042226;28;20052;-80
2022/02/12 12:20:10;;;;;;;23.25;3.65;;;;;;;9.87;86.41;100126.53;5034006;28;20033;-80
2022/02/12 12:22:37;;;;;;;2.60;0.33;;;;;;;9.89;86.39;100113.16;5040035;28;20029;-80
2022/02/12 12:25:05;;;;;;;11.50;2.17;;;;;;;9.92;86.34;100120.75;5056213;28;20040;-81
2022/02/12 12:27:34;;;;;;;3.20;0.65;;;;;;;9.97;86.72;100109.41;5039389;28;20056;-80
2022/02/12 12:32:58;;;;;;;11.98;1.27;;;;;;;10.19;86.70;100094.97;5037982;28;20418;-80
2022/02/12 12:35:25;;;;;;;4.00;1.38;;;;;;;10.26;86.89;100103.47;5033652;28;20041;-80
2022/02/12 12:37:56;;;;;;;2.67;0.50;;;;;;;10.32;86.59;100104.78;5032559;28;20099;-81
2022/02/12 12:40:32;;;;;;;3.30;0.67;;;;;;;10.40;86.82;100109.31;5048857;28;20464;-80
2022/02/12 12:43:02;;;;;;;3.10;0.45;;;;;;;10.47;86.43;100094.03;5037962;28;20302;-80
2022/02/12 12:45:36;;;;;;;1.83;0.63;;;;;;;10.57;86.73;100104.56;5040339;28;20401;-80
2022/02/12 12:48:03;;;;;;;3.00;0.40;;;;;;;10.66;86.70;100088.56;5048089;28;20049;-80
2022/02/12 12:50:38;;;;;;;2.40;0.73;;;;;;;10.77;86.81;100097.91;5051645;28;20047;-80
2022/02/12 12:53:05;;;;;;;;;;;;;;;10.86;86.99;100092.94;5049795;28;20044;-81
2022/02/12 12:55:35;;;;;;;7.03;1.88;;;;;;;10.96;86.50;100095.16;5053199;28;19924;-80
2022/02/12 12:58:13;;;;;;;2.05;1.08;;;;;;;11.06;86.33;100079.94;5072405;28;20036;-80
2022/02/12 13:00:40;;;;;;;5.05;1.13;;;;;;;11.15;86.27;100091.56;5051446;28;20075;-80
2022/02/12 13:03:08;;;;;;;5.43;0.93;;;;;;;11.18;85.78;100086.13;5072093;28;20093;-80
2022/02/12 13:05:35;;;;;;;7.95;2.13;;;;;;;11.25;85.68;100086.25;5054559;28;20066;-80
2022/02/12 13:08:06;;;;;;;3.38;0.93;;;;;;;11.29;85.33;100075.25;5053153;28;20044;-80
2022/02/12 13:10:35;;;;;;;3.63;1.05;;;;;;;11.34;85.06;100067.44;5053012;28;20051;-80
2022/02/12 13:13:21;;;;;;;7.60;1.80;;;;;;;11.34;84.32;100067.44;5071373;28;20036;-80
2022/02/12 13:15:48;;;;;;;5.97;1.15;;;;;;;11.33;84.23;100065.03;5061007;28;20067;-80
2022/02/12 13:18:15;;;;;;;10.15;2.10;;;;;;;11.43;84.03;100054.16;5052362;28;20028;-80
2022/02/12 13:20:44;;;;;;;7.68;2.10;;;;;;;11.55;83.65;100055.94;5052218;28;20036;-80
2022/02/12 13:23:16;;;;;;;9.20;2.05;;;;;;;11.64;83.11;100059.28;5053048;28;20051;-80
2022/02/12 13:25:47;;;;;;;9.93;2.95;;;;;;;11.66;82.72;100053.34;5051892;28;20037;-80
2022/02/12 13:28:16;;;;;;;12.75;3.13;;;;;;;11.68;82.74;100059.34;5054114;28;20045;-81
2022/02/12 13:30:48;;;;;;;10.35;3.67;;;;;;;11.73;82.54;100045.22;5054859;28;20116;-80
2022/02/12 13:33:24;;;;;;;;;;;;;;;11.83;82.42;100061.22;5052784;28;20197;-80
2022/02/12 13:35:52;;;;;;;12.80;4.22;;;;;;;11.94;82.71;100045.59;5053595;28;19930;-80
2022/02/12 13:38:28;;;;;;;10.32;3.92;;;;;;;11.97;82.80;100044.81;5042327;28;20492;-80
2022/02/12 13:40:57;;;;;;;6.45;2.60;;;;;;;11.99;81.97;100051.59;5071939;28;20109;-80
2022/02/12 13:43:28;;;;;;;5.43;2.00;;;;;;;11.96;81.71;100040.44;5071182;28;20115;-80
2022/02/12 13:45:58;;;;;;;5.65;2.03;;;;;;;11.91;81.57;100033.25;5052964;28;20402;-80
2022/02/12 13:48:39;;;;;;;5.47;1.92;;;;;;;11.73;81.37;100028.56;5054601;28;20054;-81
2022/02/12 13:51:12;;;;;;;5.17;1.73;;;;;;;11.61;81.94;100043.38;5071818;28;20478;-81
2022/02/12 13:53:45;;;;;;;7.40;1.80;;;;;;;11.45;82.13;100046.28;5071082;28;20041;-80
2022/02/12 13:56:17;;;;;;;8.50;1.77;;;;;;;11.33;82.26;100043.66;5071918;28;20043;-80
2022/02/12 13:58:47;;;;;;;5.20;2.08;;;;;;;11.28;82.55;100035.63;5052349;28;20523;-80
2022/02/12 14:01:15;;;;;;;7.63;1.83;;;;;;;11.27;83.16;100039.59;5049777;28;20520;-81
2022/02/12 14:03:49;;;;;;;5.10;1.30;;;;;;;11.31;82.84;100026.59;5053455;28;20204;-81
2022/02/12 14:06:18;;;;;;;3.95;1.15;;;;;;;11.38;81.49;100023.97;5053007;28;20067;-81
2022/02/12 14:12:19;;;;;;;7.85;1.42;;;;;;;11.31;79.21;100021.06;5040433;28;20097;-80
2022/02/12 14:15:30;;;;;;;5.47;1.20;;;;;;;11.19;78.75;100018.47;5056245;28;20070;-86
2022/02/12 14:17:57;;;;;;;15.90;2.80;;;;;;;11.15;79.25;100020.34;5050892;28;20044;-80
2022/02/12 14:20:29;;;;;;;;;;;;;;;11.07;78.18;100012.28;5036380;28;20056;-80
2022/02/12 14:22:55;;;;;;;6.45;1.58;;;;;;;11.21;79.23;100005.03;5051184;28;19932;-80
2022/02/12 14:25:23;;;;;;;4.65;1.40;;;;;;;11.42;79.03;99997.13;5053649;28;20454;-80
2022/02/12 14:27:50;;;;;;;8.07;1.60;;;;;;;11.55;78.58;99987.44;5034590;28;20047;-80
2022/02/12 14:30:17;;;;;;;8.10;1.65;;;;;;;11.67;78.28;99996.75;5072015;28;20071;-80
2022/02/12 14:32:46;;;;;;;5.28;1.67;;;;;;;11.79;78.10;99988.25;5051415;28;20063;-80
2022/02/12 14:35:21;;;;;;;7.75;1.50;;;;;;;11.85;77.24;99979.25;5072046;28;20040;-80
2022/02/12 14:38:03;;;;;;;6.35;1.65;;;;;;;11.88;77.16;99980.50;5069349;28;20040;-80
2022/02/12 14:40:38;;;;;;;3.97;1.70;;;;;;;11.94;77.39;99984.56;5050630;28;20052;-81
2022/02/12 14:43:08;;;;;;;6.82;2.53;;;;;;;12.00;76.96;99974.72;5073329;28;20040;-80
2022/02/12 16:01:22;;;;;;;;;;;;;;;;;;;;;
2022/02/12 16:09:28;;;;;;;;;;;;;;;;;;;;;
2022/02/12 16:23:43;;;;;;;13.32;2.25;;;;;;;10.26;74.25;99950.50;5394137;22;19108442;-83